Time;durP1;ratioP1;P1;durP2;ratioP2;P2;SDS_P1;SDS_P2;PMS_P1;PMS_P2;Temp;Humidity;BMP_temperature;BMP_pressure;BME280_temperature;BME280_humidity;BME280_pressure;Samples;Min_cycle;Max_cycle;Signal;HPM_P1;HPM_P2
2020/12/19 00:00:25;;;;;;;10.38;7.70;;;;;;;3.51;76.21;97106.97;4920512;29;20151;-76
2020/12/19 00:02:52;;;;;;;11.98;8.60;;;;;;;3.48;76.23;97115.78;4919863;29;20063;-77
2020/12/19 00:05:19;;;;;;;11.77;8.15;;;;;;;3.46;75.90;97101.38;4920201;29;20059;-76
2020/12/19 00:07:46;;;;;;;11.52;8.15;;;;;;;3.42;75.78;97103.38;4920291;29;20052;-77
2020/12/19 00:10:12;;;;;;;11.55;8.10;;;;;;;3.38;75.84;97102.00;4919908;29;20051;-77
2020/12/19 00:12:45;;;;;;;16.10;8.57;;;;;;;3.34;75.53;97110.91;4937083;29;20059;-77
2020/12/19 00:15:12;;;;;;;10.20;7.85;;;;;;;3.30;76.29;97102.63;4939806;29;20063;-76
2020/12/19 00:17:39;;;;;;;10.02;8.02;;;;;;;3.29;76.05;97103.56;4941775;29;20058;-76
2020/12/19 00:20:05;;;;;;;11.60;8.30;;;;;;;3.28;76.06;97106.28;4940659;29;20063;-77
2020/12/19 00:22:32;;;;;;;12.73;8.27;;;;;;;3.26;75.67;97105.59;4940835;29;20052;-77
2020/12/19 00:24:58;;;;;;;13.40;8.50;;;;;;;3.20;75.43;97106.88;4941041;29;20058;-76
2020/12/19 00:27:25;;;;;;;10.73;8.00;;;;;;;3.16;75.85;97112.41;4941004;29;20047;-76
2020/12/19 00:29:52;;;;;;;10.10;9.02;;;;;;;3.10;75.70;97103.41;4940342;29;20052;-77
2020/12/19 00:32:20;;;;;;;11.75;8.88;;;;;;;3.05;75.56;97100.38;4940373;29;20054;-77
2020/12/19 00:34:53;;;;;;;9.15;7.28;;;;;;;2.99;75.59;97106.00;4940618;29;20032;-78
2020/12/19 00:37:20;;;;;;;11.48;7.93;;;;;;;2.93;76.00;97094.44;4923815;29;20058;-77
2020/12/19 00:39:47;;;;;;;11.50;7.97;;;;;;;2.88;76.42;97097.38;4922637;29;20048;-76
2020/12/19 00:42:14;;;;;;;10.98;7.70;;;;;;;2.85;76.22;97105.34;4920593;29;20048;-77
2020/12/19 00:44:40;;;;;;;9.80;8.23;;;;;;;2.79;76.34;97092.94;4920232;29;20052;-77
2020/12/19 00:47:07;;;;;;;13.40;8.93;;;;;;;2.77;76.04;97091.44;4920530;29;20419;-77
2020/12/19 00:49:34;;;;;;;11.02;8.32;;;;;;;2.76;76.08;97100.13;4920255;29;20062;-78
2020/12/19 00:52:01;;;;;;;11.48;8.25;;;;;;;2.71;76.67;97092.72;4918153;29;20123;-76
2020/12/19 00:54:27;;;;;;;9.77;7.47;;;;;;;2.68;76.39;97088.63;4918946;29;20060;-77
2020/12/19 00:56:54;;;;;;;10.23;8.32;;;;;;;2.69;76.50;97092.06;4919299;29;20044;-77
2020/12/19 00:59:21;;;;;;;10.43;8.60;;;;;;;2.69;76.79;97084.31;4919073;29;20056;-77
2020/12/19 01:01:47;;;;;;;15.77;9.20;;;;;;;2.71;77.00;97081.59;4919551;29;20159;-77
2020/12/19 01:04:15;;;;;;;11.63;8.43;;;;;;;2.72;76.85;97083.25;4918869;29;20059;-77
2020/12/19 01:06:42;;;;;;;9.95;8.38;;;;;;;2.73;76.98;97074.59;4918487;29;20056;-77
2020/12/19 01:09:09;;;;;;;10.15;8.40;;;;;;;2.73;76.99;97075.38;4918537;29;20056;-77
2020/12/19 01:11:37;;;;;;;10.60;8.68;;;;;;;2.76;77.43;97080.31;4919002;29;20060;-77
2020/12/19 01:14:04;;;;;;;9.23;7.93;;;;;;;2.78;77.43;97078.44;4918839;29;20056;-76
2020/12/19 01:16:31;;;;;;;8.88;7.72;;;;;;;2.79;77.38;97080.06;4918372;29;20048;-75
2020/12/19 01:18:59;;;;;;;14.18;8.70;;;;;;;2.77;77.27;97071.63;4918146;29;20442;-76
2020/12/19 01:21:32;;;;;;;9.48;8.02;;;;;;;2.77;77.57;97084.53;4918286;29;20448;-76
2020/12/19 01:23:58;;;;;;;12.20;7.88;;;;;;;2.78;77.57;97085.38;4917886;29;20063;-76
2020/12/19 01:26:25;;;;;;;9.73;8.23;;;;;;;2.78;77.24;97083.59;4917612;29;20044;-76
2020/12/19 01:28:52;;;;;;;9.85;7.93;;;;;;;2.76;77.15;97075.16;4917980;29;20054;-77
2020/12/19 01:31:21;;;;;;;9.23;7.65;;;;;;;2.76;77.66;97077.75;4917746;29;20143;-76
2020/12/19 01:33:48;;;;;;;11.13;8.20;;;;;;;2.77;77.36;97084.53;4917832;29;20058;-76
2020/12/19 01:36:18;;;;;;;11.30;8.40;;;;;;;2.78;77.87;97077.63;4916524;29;20055;-76
2020/12/19 01:38:46;;;;;;;10.60;7.55;;;;;;;2.80;77.39;97076.56;4916976;29;20052;-76
2020/12/19 01:41:12;;;;;;;9.65;8.00;;;;;;;2.80;77.63;97073.16;4917414;29;20068;-75
2020/12/19 01:43:47;;;;;;;8.70;7.55;;;;;;;2.81;77.60;97065.31;4917720;29;20051;-76
2020/12/19 01:46:26;;;;;;;9.65;7.32;;;;;;;2.81;77.84;97067.06;4917616;29;20052;-76
2020/12/19 01:48:54;;;;;;;10.30;7.82;;;;;;;2.79;77.04;97062.03;4917444;29;20048;-76
2020/12/19 01:51:21;;;;;;;10.88;8.98;;;;;;;2.75;77.49;97060.63;4917685;29;20138;-76
2020/12/19 01:53:48;;;;;;;9.68;7.75;;;;;;;2.75;77.77;97058.06;4919403;29;20060;-76
2020/12/19 01:56:20;;;;;;;9.50;7.95;;;;;;;2.77;77.66;97058.75;4919011;29;20052;-77
2020/12/19 01:58:47;;;;;;;9.27;7.17;;;;;;;2.77;77.55;97056.19;4918333;29;20063;-77
2020/12/19 02:01:15;;;;;;;9.40;8.30;;;;;;;2.78;77.33;97057.84;4917362;29;20052;-80
2020/12/19 02:03:53;;;;;;;12.13;8.00;;;;;;;2.80;77.71;97049.97;4916866;29;20055;-76
2020/12/19 02:06:20;;;;;;;11.88;8.75;;;;;;;2.79;77.24;97051.72;4917022;29;20570;-75
2020/12/19 02:08:49;;;;;;;8.32;7.43;;;;;;;2.79;77.15;97048.34;4918677;29;20048;-77
2020/12/19 02:11:16;;;;;;;11.07;8.02;;;;;;;2.79;77.56;97056.88;4919502;29;20058;-77
2020/12/19 02:13:43;;;;;;;9.45;8.00;;;;;;;2.79;77.48;97048.34;4917771;29;20051;-77
2020/12/19 02:16:16;;;;;;;10.48;8.38;;;;;;;2.79;76.96;97048.34;4917406;29;20048;-77
2020/12/19 02:18:42;;;;;;;12.57;8.63;;;;;;;2.78;77.05;97047.53;4917095;29;20463;-75
2020/12/19 02:21:08;;;;;;;12.65;8.77;;;;;;;2.78;77.55;97047.53;4916782;29;20060;-76
2020/12/19 02:23:36;;;;;;;10.25;8.10;;;;;;;2.78;77.43;97034.66;4916845;29;20052;-76
2020/12/19 02:26:03;;;;;;;11.23;7.57;;;;;;;2.80;77.04;97045.66;4916868;29;20068;-75
2020/12/19 02:28:29;;;;;;;11.43;8.68;;;;;;;2.78;77.22;97037.22;4916772;29;20056;-76
2020/12/19 02:30:56;;;;;;;9.60;8.60;;;;;;;2.77;77.05;97037.34;4916582;29;20445;-76
2020/12/19 02:33:22;;;;;;;12.23;9.15;;;;;;;2.73;77.22;97029.03;4916944;29;20048;-76
2020/12/19 02:36:05;;;;;;;11.82;9.50;;;;;;;2.71;77.22;97028.31;4917017;29;20099;-76
2020/12/19 02:38:32;;;;;;;12.25;8.55;;;;;;;2.69;77.01;97032.81;4916669;29;20048;-76
2020/12/19 02:40:59;;;;;;;10.02;8.13;;;;;;;2.66;77.01;97030.47;4916398;29;20059;-76
2020/12/19 02:43:25;;;;;;;9.43;8.35;;;;;;;2.65;77.52;97024.50;4916588;29;20056;-76
2020/12/19 02:45:52;;;;;;;11.20;8.20;;;;;;;2.64;77.05;97020.28;4916601;29;20056;-76
2020/12/19 02:48:18;;;;;;;11.02;8.38;;;;;;;2.64;77.48;97029.75;4916582;29;20075;-76
2020/12/19 02:50:45;;;;;;;11.13;8.25;;;;;;;2.60;76.98;97018.91;4916340;29;20055;-76
2020/12/19 02:53:11;;;;;;;10.68;7.63;;;;;;;2.59;77.41;97027.56;4916633;29;20529;-76
2020/12/19 02:55:38;;;;;;;11.00;7.82;;;;;;;2.58;77.03;97027.66;4916290;29;20111;-76
2020/12/19 02:58:05;;;;;;;9.63;8.23;;;;;;;2.57;77.40;97018.31;4916100;29;20073;-76
2020/12/19 03:00:32;;;;;;;14.10;8.57;;;;;;;2.55;76.85;97022.75;4916359;29;20067;-76
2020/12/19 03:02:59;;;;;;;10.95;7.90;;;;;;;2.53;77.19;97015.16;4916526;29;20129;-76
2020/12/19 03:05:25;;;;;;;10.98;8.07;;;;;;;2.53;77.31;97009.19;4916339;29;20066;-76
2020/12/19 03:07:52;;;;;;;12.15;8.45;;;;;;;2.52;77.31;97012.72;4916159;29;20059;-76
2020/12/19 03:10:18;;;;;;;12.68;9.25;;;;;;;2.51;77.39;97013.66;4915998;29;20060;-76
2020/12/19 03:12:45;;;;;;;15.93;9.38;;;;;;;2.48;77.48;97002.66;4916390;29;20075;-76
2020/12/19 03:15:12;;;;;;;12.60;8.95;;;;;;;2.47;77.29;97008.75;4915634;29;20056;-76
2020/12/19 03:17:39;;;;;;;11.77;8.23;;;;;;;2.45;77.48;97005.47;4916211;29;20060;-76
2020/12/19 03:25:29;;;;;;;12.13;8.30;;;;;;;2.37;77.72;97001.88;5232142;23;20090;-83
2020/12/19 03:27:57;;;;;;;10.77;8.88;;;;;;;2.35;77.54;96999.41;4968642;29;20115;-82
2020/12/19 03:30:26;;;;;;;9.85;7.70;;;;;;;2.33;77.03;97003.84;4969962;29;20047;-82
2020/12/19 03:32:54;;;;;;;12.73;7.88;;;;;;;2.30;77.00;96993.81;4969823;28;20063;-82
2020/12/19 03:35:23;;;;;;;16.02;7.88;;;;;;;2.28;76.80;96994.88;4969885;28;20040;-83
2020/12/19 03:37:51;;;;;;;11.10;8.10;;;;;;;2.24;76.84;96989.13;4969097;28;20142;-82
2020/12/19 03:40:19;;;;;;;10.20;7.63;;;;;;;2.20;77.34;96991.13;4969691;28;20133;-82
2020/12/19 03:42:46;;;;;;;12.35;7.53;;;;;;;2.16;77.24;96992.28;4967875;28;20078;-83
2020/12/19 03:45:14;;;;;;;11.13;7.72;;;;;;;2.16;77.12;96991.47;4967243;28;20061;-82
2020/12/19 03:47:42;;;;;;;11.05;7.88;;;;;;;2.14;77.17;96999.31;4964782;28;20470;-83
2020/12/19 03:50:10;;;;;;;12.52;7.70;;;;;;;2.13;77.19;96989.97;4967659;28;20050;-82
2020/12/19 03:52:37;;;;;;;10.73;6.53;;;;;;;2.10;76.96;96984.22;4967988;28;20043;-83
2020/12/19 03:55:05;;;;;;;14.85;8.10;;;;;;;2.05;77.10;96985.41;4966755;28;20437;-83
2020/12/19 03:57:32;;;;;;;11.50;7.65;;;;;;;2.03;76.82;96978.75;4966097;28;20062;-83
2020/12/19 04:00:00;;;;;;;11.35;9.07;;;;;;;2.02;77.18;96988.22;4966951;28;20058;-82
2020/12/19 04:02:28;;;;;;;9.10;7.78;;;;;;;2.01;77.02;96984.03;4966235;28;20120;-83
2020/12/19 04:04:57;;;;;;;10.68;6.90;;;;;;;1.99;77.08;96980.75;4966575;28;20055;-82
2020/12/19 04:07:24;;;;;;;11.88;7.65;;;;;;;1.96;77.27;96980.16;4967729;28;20574;-82
2020/12/19 04:09:52;;;;;;;11.18;7.80;;;;;;;1.96;77.08;96983.56;4967992;28;20055;-82
2020/12/19 04:12:19;;;;;;;12.02;6.85;;;;;;;1.95;77.06;96971.63;4968247;28;20066;-82
2020/12/19 04:14:47;;;;;;;11.18;8.15;;;;;;;1.92;77.43;96977.00;4968295;28;20079;-82
2020/12/19 04:17:18;;;;;;;9.85;7.38;;;;;;;1.93;76.75;96983.00;4966644;28;20078;-82
2020/12/19 04:19:46;;;;;;;9.05;6.75;;;;;;;1.93;77.24;96962.41;4967218;29;20083;-82
2020/12/19 04:22:15;;;;;;;11.93;7.90;;;;;;;1.93;76.88;96973.50;4967137;28;20043;-82
2020/12/19 04:24:46;;;;;;;10.23;7.45;;;;;;;1.90;76.96;96971.16;4966597;28;20057;-83
2020/12/19 04:27:13;;;;;;;10.23;7.50;;;;;;;1.87;77.13;96963.69;4971092;28;20134;-82
2020/12/19 04:29:41;;;;;;;9.15;7.15;;;;;;;1.84;77.08;96969.88;4971490;28;20066;-83
2020/12/19 04:32:09;;;;;;;8.85;7.88;;;;;;;1.80;77.01;96958.19;4970995;28;20055;-82
2020/12/19 04:34:36;;;;;;;9.75;7.05;;;;;;;1.79;77.32;96961.72;4971384;28;20071;-83
2020/12/19 04:37:18;;;;;;;10.98;6.95;;;;;;;1.79;77.26;96955.72;4971553;28;20047;-83
2020/12/19 04:39:45;;;;;;;8.38;7.50;;;;;;;1.80;76.93;96957.38;4970954;28;20059;-82
2020/12/19 04:42:13;;;;;;;10.45;7.45;;;;;;;1.78;77.53;96959.25;4971337;28;20055;-83
2020/12/19 04:44:41;;;;;;;11.10;7.43;;;;;;;1.77;77.37;96961.03;4971684;28;20106;-83
2020/12/19 04:47:09;;;;;;;8.65;6.60;;;;;;;1.76;77.40;96955.97;4970475;28;20107;-82
2020/12/19 04:49:37;;;;;;;9.57;7.13;;;;;;;1.72;77.26;96952.00;4970549;28;20501;-83
2020/12/19 04:52:05;;;;;;;8.63;7.50;;;;;;;1.69;77.27;96953.06;4970584;28;20044;-83
2020/12/19 04:54:33;;;;;;;8.70;7.03;;;;;;;1.70;77.15;96956.44;4970728;28;20116;-82
2020/12/19 04:57:01;;;;;;;9.23;6.75;;;;;;;1.70;77.52;96959.03;4970441;28;20055;-83
2020/12/19 04:59:29;;;;;;;10.60;8.07;;;;;;;1.69;77.52;96960.78;4970976;28;20047;-82
2020/12/19 05:01:57;;;;;;;8.00;6.93;;;;;;;1.69;77.51;96958.22;4973752;28;20055;-83
2020/12/19 05:04:25;;;;;;;8.70;7.50;;;;;;;1.68;77.78;96958.31;4973985;28;20076;-83
2020/12/19 05:06:52;;;;;;;8.50;6.57;;;;;;;1.67;77.45;96962.66;4974514;28;20052;-82
2020/12/19 05:09:20;;;;;;;22.08;7.95;;;;;;;1.67;77.65;96967.78;4973971;28;20066;-82
2020/12/19 05:11:51;;;;;;;9.10;7.43;;;;;;;1.67;77.74;96962.66;4973356;29;20055;-83
2020/12/19 05:14:20;;;;;;;8.52;6.75;;;;;;;1.68;77.57;96958.31;4973790;28;20055;-83
2020/12/19 05:16:49;;;;;;;8.07;6.95;;;;;;;1.69;77.96;96965.13;4971725;28;20051;-82
2020/12/19 05:19:18;;;;;;;10.02;7.30;;;;;;;1.71;77.72;96963.25;4972455;28;20066;-82
2020/12/19 05:21:47;;;;;;;10.60;5.95;;;;;;;1.70;77.76;96961.59;4972883;28;20055;-82
2020/12/19 05:24:16;;;;;;;8.77;6.55;;;;;;;1.69;77.25;96963.34;4971958;28;20059;-83
2020/12/19 05:26:44;;;;;;;8.52;6.93;;;;;;;1.69;77.74;96960.78;4970301;28;20105;-82
2020/12/19 05:29:12;;;;;;;9.23;6.70;;;;;;;1.72;77.76;96967.44;4969455;28;20114;-82
2020/12/19 05:31:40;;;;;;;8.75;6.82;;;;;;;1.71;77.41;96968.38;4970475;28;20062;-83
2020/12/19 05:34:07;;;;;;;10.70;6.93;;;;;;;1.70;77.59;96966.72;4969715;28;20052;-83
2020/12/19 05:36:38;;;;;;;9.43;6.65;;;;;;;1.68;77.08;96958.31;4969560;28;20078;-83
2020/12/19 05:39:06;;;;;;;7.30;6.30;;;;;;;1.67;77.00;96961.84;4969731;29;20055;-82
2020/12/19 05:41:49;;;;;;;8.93;7.45;;;;;;;1.69;77.82;96967.69;4977028;29;20055;-83
2020/12/19 05:44:20;;;;;;;8.90;6.47;;;;;;;1.68;77.45;96964.28;4970154;28;20062;-83
2020/12/19 05:46:48;;;;;;;6.90;6.20;;;;;;;1.69;77.32;96972.81;4970497;29;20114;-83
2020/12/19 05:49:17;;;;;;;7.85;6.50;;;;;;;1.64;77.05;96957.75;4969208;28;20062;-82
2020/12/19 05:51:45;;;;;;;9.20;7.68;;;;;;;1.64;77.33;96965.47;4969741;28;20055;-83
2020/12/19 05:54:14;;;;;;;7.55;6.28;;;;;;;1.64;76.79;96971.41;4967097;28;20417;-82
2020/12/19 05:56:44;;;;;;;8.02;5.80;;;;;;;1.59;77.30;96960.66;4968642;28;20043;-82
2020/12/19 05:59:13;;;;;;;8.68;6.60;;;;;;;1.57;77.34;96956.56;4969542;28;20055;-82
2020/12/19 06:01:43;;;;;;;11.77;7.50;;;;;;;1.56;77.13;96975.50;4969810;28;20054;-82
2020/12/19 06:04:13;;;;;;;11.15;7.03;;;;;;;1.53;76.99;96968.84;4969230;29;20047;-82
2020/12/19 06:06:42;;;;;;;9.00;6.63;;;;;;;1.50;77.10;96965.69;4969415;28;20055;-82
2020/12/19 06:09:11;;;;;;;11.57;6.88;;;;;;;1.49;77.24;96975.16;4970731;28;20087;-82
2020/12/19 06:11:48;;;;;;;10.23;7.30;;;;;;;1.47;77.24;96964.16;4970330;28;20083;-82
2020/12/19 06:14:21;;;;;;;13.10;8.32;;;;;;;1.44;77.01;96961.81;4970355;28;20055;-82
2020/12/19 06:16:55;;;;;;;11.93;7.57;;;;;;;1.44;77.43;96964.38;4969186;28;20043;-82
2020/12/19 06:19:24;;;;;;;13.80;6.80;;;;;;;1.42;77.10;96979.09;4967973;28;20062;-82
2020/12/19 06:21:59;;;;;;;7.45;6.30;;;;;;;1.40;77.49;96970.69;4967720;28;20055;-83
2020/12/19 06:24:43;;;;;;;9.77;5.90;;;;;;;1.38;77.33;96983.69;4968791;28;20054;-83
2020/12/19 06:27:39;;;;;;;8.63;7.00;;;;;;;1.36;77.57;96974.44;4968274;28;20448;-82
2020/12/19 06:30:26;;;;;;;9.13;6.32;;;;;;;1.33;77.59;96984.94;4968673;29;20087;-83
2020/12/19 06:33:08;;;;;;;9.18;7.70;;;;;;;1.29;77.62;96989.50;4970414;29;20051;-83
2020/12/19 06:35:36;;;;;;;7.20;6.47;;;;;;;1.27;77.39;96988.81;4970794;28;20399;-83
2020/12/19 06:38:06;;;;;;;8.88;7.60;;;;;;;1.23;77.68;96980.50;4971516;28;20289;-83
2020/12/19 06:40:40;;;;;;;7.38;5.95;;;;;;;1.21;77.43;96986.69;4969693;28;20055;-82
2020/12/19 06:43:14;;;;;;;9.98;6.85;;;;;;;1.20;78.03;96991.00;4970320;28;20066;-82
2020/12/19 06:45:42;;;;;;;8.40;7.07;;;;;;;1.18;77.44;96989.47;4970068;29;20124;-82
2020/12/19 06:53:54;;;;;;;7.97;6.57;;;;;;;1.13;77.78;97000.09;4967848;23;20083;-83
2020/12/19 06:56:27;;;;;;;7.30;6.20;;;;;;;1.13;77.81;96992.38;5182972;23;20026;-81
2020/12/19 06:59:02;;;;;;;8.50;6.20;;;;;;;1.11;78.11;97011.41;4944951;29;20063;-82
2020/12/19 07:01:30;;;;;;;10.15;6.85;;;;;;;1.10;78.25;97007.22;4953134;29;20530;-83
2020/12/19 07:03:58;;;;;;;8.20;6.40;;;;;;;1.10;77.83;97007.22;4966185;28;20047;-82
2020/12/19 07:06:26;;;;;;;8.77;6.47;;;;;;;1.07;77.63;97015.94;4966378;28;20078;-82
2020/12/19 07:08:54;;;;;;;7.95;6.47;;;;;;;1.05;77.84;97009.28;4967166;28;20049;-82
2020/12/19 07:11:41;;;;;;;8.50;6.63;;;;;;;1.02;78.04;97012.91;4969118;28;20054;-82
2020/12/19 07:14:18;;;;;;;8.05;6.85;;;;;;;1.01;78.01;97016.41;4967452;28;20075;-82
2020/12/19 07:16:50;;;;;;;7.40;6.03;;;;;;;1.01;78.02;97016.41;4969079;29;20110;-82
2020/12/19 07:22:25;;;;;;;9.63;6.78;;;;;;;0.97;77.57;97027.84;4941629;28;19929;-82
2020/12/19 07:25:14;;;;;;;7.47;6.07;;;;;;;0.93;78.83;97032.38;4965050;28;20117;-81
2020/12/19 07:27:41;;;;;;;8.63;6.90;;;;;;;0.95;78.03;97037.41;4957165;29;20086;-82
2020/12/19 07:30:09;;;;;;;7.55;5.85;;;;;;;0.94;78.22;97036.59;4962128;28;20055;-82
2020/12/19 07:32:37;;;;;;;9.90;6.65;;;;;;;0.91;78.45;97030.84;5560698;23;20021;-82
2020/12/19 07:35:05;;;;;;;8.25;5.95;;;;;;;0.91;78.23;97030.84;4963920;29;20063;-82
2020/12/19 07:37:33;;;;;;;7.25;6.28;;;;;;;0.90;78.34;97031.78;4969618;29;20043;-82
2020/12/19 07:40:06;;;;;;;8.52;6.72;;;;;;;0.90;78.30;97030.03;4967936;29;20047;-82
2020/12/19 07:42:33;;;;;;;8.88;6.43;;;;;;;0.91;78.39;97028.28;4968927;28;20086;-82
2020/12/19 07:45:01;;;;;;;8.63;6.18;;;;;;;0.90;77.99;97022.34;4968587;28;20054;-83
2020/12/19 07:47:30;;;;;;;9.85;7.18;;;;;;;0.88;78.45;97037.03;4966994;28;20051;-83
2020/12/19 07:49:58;;;;;;;12.52;7.93;;;;;;;0.86;78.11;97023.47;4966994;28;20657;-82
2020/12/19 07:52:26;;;;;;;9.30;7.03;;;;;;;0.85;78.48;97026.97;4967541;28;20118;-83
2020/12/19 07:54:59;;;;;;;11.45;6.93;;;;;;;0.88;78.56;97038.78;4970253;28;20095;-82
2020/12/19 07:57:27;;;;;;;;;;;;;;;0.88;78.48;97029.31;4971256;29;20517;-82
2020/12/19 07:59:55;;;;;;;7.63;6.40;;;;;;;0.85;78.01;97037.22;4967164;28;19950;-83
2020/12/19 08:02:24;;;;;;;9.98;7.03;;;;;;;0.83;78.38;97041.66;4974782;28;20082;-82
2020/12/19 08:04:56;;;;;;;10.98;5.53;;;;;;;0.82;78.32;97040.84;4975198;28;20087;-82
2020/12/19 08:07:26;;;;;;;10.93;7.47;;;;;;;0.80;78.18;97035.00;4975254;28;20085;-82
2020/12/19 08:10:04;;;;;;;11.30;6.53;;;;;;;0.79;78.54;97035.94;4974889;29;20055;-82
2020/12/19 08:12:36;;;;;;;10.52;7.25;;;;;;;0.82;78.59;97043.41;4975307;29;20051;-81
2020/12/19 08:15:06;;;;;;;11.40;7.70;;;;;;;0.82;78.62;97045.97;4976343;29;20110;-82
2020/12/19 08:17:39;;;;;;;9.93;6.70;;;;;;;0.84;78.13;97045.06;4978694;29;20082;-83
2020/12/19 08:22:36;;;;;;;8.85;7.28;;;;;;;0.85;78.62;97046.69;4951074;29;20083;-82
2020/12/19 08:25:03;;;;;;;9.40;7.63;;;;;;;0.85;78.33;97042.38;4953710;29;20051;-83
2020/12/19 08:27:43;;;;;;;8.23;7.13;;;;;;;0.87;78.54;97055.09;4941638;29;20058;-82
2020/12/19 08:30:34;;;;;;;10.73;8.18;;;;;;;0.86;78.49;97050.91;5322649;23;727845;-82
2020/12/19 08:33:03;;;;;;;8.52;7.13;;;;;;;0.86;78.33;97038.06;4963766;29;20055;-82
2020/12/19 08:35:32;;;;;;;8.02;7.22;;;;;;;0.87;78.74;97040.50;4964403;28;20051;-78
2020/12/19 08:38:05;;;;;;;7.97;7.18;;;;;;;0.90;78.81;97047.19;4958631;29;20058;-81
2020/12/19 08:40:37;;;;;;;7.70;6.65;;;;;;;0.90;78.65;97050.59;4958480;29;20051;-81
2020/12/19 08:43:05;;;;;;;9.05;6.95;;;;;;;0.90;78.85;97037.75;4958175;29;20055;-81
2020/12/19 08:45:33;;;;;;;11.20;7.80;;;;;;;0.91;78.62;97049.63;4957982;29;20058;-80
2020/12/19 08:48:04;;;;;;;8.95;6.85;;;;;;;0.92;78.42;97047.88;4957431;29;20058;-82
2020/12/19 08:50:40;;;;;;;10.30;6.90;;;;;;;0.94;78.58;97051.16;4943854;29;20047;-82
2020/12/19 08:53:21;;;;;;;8.77;7.40;;;;;;;0.94;78.47;97051.16;4944433;29;20079;-82
2020/12/19 08:55:56;;;;;;;9.60;7.43;;;;;;;0.95;78.50;97065.66;4943017;29;20057;-82
2020/12/19 08:58:27;;;;;;;9.35;7.07;;;;;;;0.95;78.57;97055.38;4941470;29;20486;-82
2020/12/19 09:00:54;;;;;;;10.75;7.18;;;;;;;0.98;78.70;97060.28;4938572;29;20070;-82
2020/12/19 09:03:29;;;;;;;12.00;7.72;;;;;;;1.01;78.48;97072.94;4938998;29;20058;-80
2020/12/19 09:06:02;;;;;;;9.13;7.45;;;;;;;1.02;78.39;97070.22;4938029;29;20063;-81
2020/12/19 09:08:34;;;;;;;8.80;7.90;;;;;;;1.02;78.44;97070.22;4938843;29;20145;-81
2020/12/19 09:11:02;;;;;;;9.05;7.55;;;;;;;1.05;78.38;97081.22;4937446;29;20111;-81
2020/12/19 09:13:28;;;;;;;9.93;7.20;;;;;;;1.06;78.44;97075.16;4937410;29;20062;-79
2020/12/19 09:15:57;;;;;;;9.85;7.88;;;;;;;1.07;78.77;97074.22;4937178;29;20474;-80
2020/12/19 09:18:26;;;;;;;8.80;7.40;;;;;;;1.09;78.43;97086.03;4937858;29;20066;-80
2020/12/19 09:23:44;;;;;;;11.50;8.10;;;;;;;1.14;78.61;97076.25;4969338;23;20429;-75
2020/12/19 09:26:10;;;;;;;7.90;6.70;;;;;;;1.15;78.65;97070.16;4956181;28;20051;-75
2020/12/19 09:28:37;;;;;;;8.85;7.13;;;;;;;1.18;78.38;97069.97;4955855;28;20052;-76
2020/12/19 09:31:03;;;;;;;10.48;7.32;;;;;;;1.20;78.38;97070.66;4955533;29;20058;-75
2020/12/19 09:33:30;;;;;;;9.73;8.48;;;;;;;1.21;78.56;97074.88;4955785;29;20051;-76
2020/12/19 09:35:56;;;;;;;9.27;8.02;;;;;;;1.24;78.49;97087.47;4955596;28;20066;-74
2020/12/19 09:38:23;;;;;;;9.23;7.80;;;;;;;1.28;78.81;97085.50;4955799;29;20055;-75
2020/12/19 09:40:50;;;;;;;12.48;7.82;;;;;;;1.31;78.40;97085.31;4955596;29;20059;-74
2020/12/19 09:43:17;;;;;;;9.90;7.30;;;;;;;1.35;78.35;97083.31;4955589;28;20051;-74
2020/12/19 09:45:44;;;;;;;9.70;7.45;;;;;;;1.38;78.69;97081.34;4955743;28;20058;-76
2020/12/19 09:48:11;;;;;;;13.48;7.20;;;;;;;1.40;78.59;97084.63;4955749;28;20051;-74
2020/12/19 09:50:37;;;;;;;10.52;8.02;;;;;;;1.41;78.64;97077.72;4955218;28;20051;-75
2020/12/19 09:53:04;;;;;;;8.75;7.85;;;;;;;1.43;78.32;97078.44;4956000;28;20409;-74
2020/12/19 09:55:32;;;;;;;9.35;7.03;;;;;;;1.45;78.29;97071.44;4956543;28;20055;-74
2020/12/19 09:58:00;;;;;;;8.10;7.00;;;;;;;1.50;78.30;97061.63;4957474;28;20047;-74
2020/12/19 10:00:26;;;;;;;9.60;7.40;;;;;;;1.52;78.57;97075.19;4955917;28;20055;-75
2020/12/19 10:02:54;;;;;;;8.70;6.85;;;;;;;1.54;78.21;97065.59;4955204;28;20070;-76
2020/12/19 10:05:22;;;;;;;9.05;6.78;;;;;;;1.55;78.42;97064.69;4955107;28;20130;-76
2020/12/19 10:07:48;;;;;;;8.25;7.40;;;;;;;1.54;78.37;97060.47;4956220;28;20490;-74
2020/12/19 10:10:15;;;;;;;9.73;7.53;;;;;;;1.56;78.25;97057.78;4958168;28;20048;-74
2020/12/19 10:12:41;;;;;;;9.82;7.70;;;;;;;1.59;78.26;97058.34;4956402;29;20051;-75
2020/12/19 10:15:10;;;;;;;8.20;6.97;;;;;;;1.62;78.67;97045.28;4955274;29;20047;-74
2020/12/19 10:17:38;;;;;;;11.52;7.53;;;;;;;1.68;78.26;97061.19;4954809;29;20051;-75
2020/12/19 10:20:06;;;;;;;9.18;8.20;;;;;;;1.73;78.23;97048.78;4954490;28;20533;-75
2020/12/19 10:22:32;;;;;;;9.20;7.43;;;;;;;1.78;78.22;97046.72;4954648;29;20051;-75
2020/12/19 10:25:00;;;;;;;10.55;8.55;;;;;;;1.80;78.17;97049.97;4954286;28;20130;-77
2020/12/19 10:27:26;;;;;;;11.65;8.40;;;;;;;1.86;77.90;97049.53;4955018;28;20417;-75
2020/12/19 10:29:53;;;;;;;11.13;8.18;;;;;;;1.89;77.98;97039.00;4954447;28;20055;-76
2020/12/19 10:32:20;;;;;;;11.23;8.73;;;;;;;1.95;78.02;97041.09;4954773;28;20497;-75
2020/12/19 10:34:47;;;;;;;9.43;7.45;;;;;;;2.01;77.88;97040.63;4954901;29;20058;-75
2020/12/19 10:37:13;;;;;;;12.32;7.68;;;;;;;2.05;77.76;97048.94;4954683;28;20058;-75
2020/12/19 10:39:40;;;;;;;10.98;8.23;;;;;;;2.08;77.68;97051.28;4953842;29;20055;-75
2020/12/19 10:42:07;;;;;;;10.55;8.00;;;;;;;2.14;77.50;97052.53;4954563;28;20082;-76
2020/12/19 10:44:33;;;;;;;11.88;8.10;;;;;;;2.15;77.26;97038.75;4953527;28;20074;-76
2020/12/19 10:47:00;;;;;;;9.57;8.10;;;;;;;2.19;77.68;97040.16;4953440;28;20520;-76
2020/12/19 10:49:27;;;;;;;11.60;8.52;;;;;;;2.23;77.11;97042.38;4954447;28;20426;-76
2020/12/19 10:51:54;;;;;;;10.93;8.60;;;;;;;2.28;77.41;97038.63;4954338;28;20051;-76
2020/12/19 10:54:20;;;;;;;10.25;8.05;;;;;;;2.29;77.00;97046.22;4954633;28;20051;-76
2020/12/19 10:56:55;;;;;;;10.88;8.30;;;;;;;2.35;76.86;97035.44;4954129;29;20051;-75
2020/12/19 10:59:22;;;;;;;10.68;8.82;;;;;;;2.43;77.19;97027.13;4953990;29;20051;-76
2020/12/19 11:01:49;;;;;;;12.05;9.55;;;;;;;2.49;76.98;97026.63;4953206;28;20054;-76
2020/12/19 11:04:16;;;;;;;10.60;8.48;;;;;;;2.52;76.80;97025.59;4954637;28;20454;-76
2020/12/19 11:06:43;;;;;;;12.07;8.38;;;;;;;2.55;76.42;97020.19;4954654;28;20434;-76
2020/12/19 11:09:13;;;;;;;9.98;8.85;;;;;;;2.61;76.18;97014.56;4951729;29;20062;-76
2020/12/19 11:11:39;;;;;;;11.40;8.02;;;;;;;2.64;76.22;97004.81;4971566;28;20058;-76
2020/12/19 11:14:05;;;;;;;9.82;8.82;;;;;;;2.74;76.49;97002.34;4973060;28;20047;-76
2020/12/19 11:16:32;;;;;;;10.43;9.05;;;;;;;2.84;76.09;96995.50;4973343;28;20054;-76
2020/12/19 11:18:59;;;;;;;11.45;9.02;;;;;;;2.96;75.85;97000.63;4973541;28;20050;-74
2020/12/19 11:21:25;;;;;;;10.27;8.35;;;;;;;3.09;75.94;97007.22;4973166;28;20055;-76
2020/12/19 11:23:52;;;;;;;10.60;8.32;;;;;;;3.24;75.46;97009.50;4973538;28;20061;-75
2020/12/19 11:26:21;;;;;;;11.65;8.50;;;;;;;3.36;75.43;96993.00;4973526;28;20050;-76
2020/12/19 11:28:48;;;;;;;13.38;9.55;;;;;;;3.47;75.07;96997.28;4973561;28;20079;-76
2020/12/19 11:31:16;;;;;;;11.57;8.73;;;;;;;3.59;74.78;96990.28;4972958;28;20498;-75
2020/12/19 11:33:43;;;;;;;11.45;9.35;;;;;;;3.71;74.18;96979.72;4956920;28;20083;-76
2020/12/19 11:36:15;;;;;;;11.75;8.82;;;;;;;3.78;74.20;96986.97;4958106;28;20053;-75
2020/12/19 11:38:41;;;;;;;11.07;9.35;;;;;;;3.87;74.10;96986.16;4960204;28;20079;-76
2020/12/19 11:41:09;;;;;;;11.30;8.70;;;;;;;4.00;73.79;96997.13;4959751;28;20055;-76
2020/12/19 11:43:35;;;;;;;11.27;9.07;;;;;;;4.16;73.75;96993.22;4960225;28;20047;-76
2020/12/19 11:46:02;;;;;;;10.23;8.23;;;;;;;4.27;73.08;96995.69;4960190;28;20564;-76
2020/12/19 11:48:28;;;;;;;10.60;8.55;;;;;;;4.35;72.72;96972.56;4960221;29;20058;-75
2020/12/19 11:50:55;;;;;;;10.38;8.40;;;;;;;4.40;72.65;96991.09;4959983;28;20051;-76
2020/12/19 11:53:21;;;;;;;10.20;8.52;;;;;;;4.41;71.99;96982.38;4960293;28;20067;-76
2020/12/19 11:55:48;;;;;;;8.98;8.00;;;;;;;4.44;72.07;96984.72;4960256;28;20051;-76
2020/12/19 11:58:15;;;;;;;9.70;7.57;;;;;;;4.51;71.84;96988.38;4960160;28;20458;-75
2020/12/19 12:00:42;;;;;;;10.73;8.00;;;;;;;4.62;72.02;96973.72;4959994;28;20059;-76
2020/12/19 12:03:10;;;;;;;8.75;7.80;;;;;;;4.70;71.55;96976.41;4960066;28;20406;-75